sensor_id;sensor_type;location;lat;lon;timestamp;P1;durP1;ratioP1;P2;durP2;ratioP2
53253;SDS011;39148;53.332;6.922;2023-05-10T00:01:04;3.92;;;2.58;;
53253;SDS011;39148;53.332;6.922;2023-05-10T00:03:31;3.63;;;2.47;;
53253;SDS011;39148;53.332;6.922;2023-05-10T00:05:56;3.65;;;2.65;;
53253;SDS011;39148;53.332;6.922;2023-05-10T00:08:22;3.72;;;2.50;;
53253;SDS011;39148;53.332;6.922;2023-05-10T00:10:48;4.43;;;2.97;;
53253;SDS011;39148;53.332;6.922;2023-05-10T00:13:14;4.75;;;2.75;;
53253;SDS011;39148;53.332;6.922;2023-05-10T00:15:39;4.03;;;2.80;;
53253;SDS011;39148;53.332;6.922;2023-05-10T00:18:06;4.25;;;3.00;;
53253;SDS011;39148;53.332;6.922;2023-05-10T00:20:31;4.30;;;2.97;;
53253;SDS011;39148;53.332;6.922;2023-05-10T00:22:57;4.22;;;2.97;;
53253;SDS011;39148;53.332;6.922;2023-05-10T00:25:23;4.43;;;3.00;;
53253;SDS011;39148;53.332;6.922;2023-05-10T00:27:48;4.20;;;3.05;;
53253;SDS011;39148;53.332;6.922;2023-05-10T00:30:15;4.32;;;2.80;;
53253;SDS011;39148;53.332;6.922;2023-05-10T00:32:41;4.00;;;2.80;;
53253;SDS011;39148;53.332;6.922;2023-05-10T00:35:07;4.15;;;3.00;;
53253;SDS011;39148;53.332;6.922;2023-05-10T00:37:33;5.25;;;3.00;;
53253;SDS011;39148;53.332;6.922;2023-05-10T00:39:58;4.20;;;2.97;;
53253;SDS011;39148;53.332;6.922;2023-05-10T00:42:24;4.75;;;3.47;;
53253;SDS011;39148;53.332;6.922;2023-05-10T00:44:50;4.65;;;3.25;;
53253;SDS011;39148;53.332;6.922;2023-05-10T00:47:16;4.68;;;3.22;;
53253;SDS011;39148;53.332;6.922;2023-05-10T00:49:42;4.70;;;2.92;;
53253;SDS011;39148;53.332;6.922;2023-05-10T00:52:08;4.03;;;3.08;;
53253;SDS011;39148;53.332;6.922;2023-05-10T00:54:34;4.03;;;2.75;;
53253;SDS011;39148;53.332;6.922;2023-05-10T00:57:01;3.92;;;2.72;;
53253;SDS011;39148;53.332;6.922;2023-05-10T00:59:26;3.75;;;2.63;;
53253;SDS011;39148;53.332;6.922;2023-05-10T01:01:53;3.55;;;2.63;;
53253;SDS011;39148;53.332;6.922;2023-05-10T01:04:19;3.65;;;2.60;;
53253;SDS011;39148;53.332;6.922;2023-05-10T01:09:19;4.55;;;2.85;;
53253;SDS011;39148;53.332;6.922;2023-05-10T01:11:46;4.05;;;2.88;;
53253;SDS011;39148;53.332;6.922;2023-05-10T01:14:12;4.50;;;3.03;;
53253;SDS011;39148;53.332;6.922;2023-05-10T01:16:40;4.10;;;3.15;;
53253;SDS011;39148;53.332;6.922;2023-05-10T01:19:17;4.30;;;3.03;;
53253;SDS011;39148;53.332;6.922;2023-05-10T01:21:53;3.63;;;2.80;;
53253;SDS011;39148;53.332;6.922;2023-05-10T01:35:55;4.88;;;3.30;;
53253;SDS011;39148;53.332;6.922;2023-05-10T01:41:16;4.30;;;3.08;;
53253;SDS011;39148;53.332;6.922;2023-05-10T01:46:24;3.95;;;3.00;;
53253;SDS011;39148;53.332;6.922;2023-05-10T01:48:58;4.40;;;2.78;;
53253;SDS011;39148;53.332;6.922;2023-05-10T01:51:29;4.03;;;2.90;;
53253;SDS011;39148;53.332;6.922;2023-05-10T01:54:02;4.60;;;3.40;;
53253;SDS011;39148;53.332;6.922;2023-05-10T01:56:29;4.32;;;3.20;;
53253;SDS011;39148;53.332;6.922;2023-05-10T01:58:58;5.05;;;3.25;;
53253;SDS011;39148;53.332;6.922;2023-05-10T02:01:27;4.38;;;3.05;;
53253;SDS011;39148;53.332;6.922;2023-05-10T02:03:53;4.38;;;3.20;;
53253;SDS011;39148;53.332;6.922;2023-05-10T02:06:20;4.75;;;3.15;;
53253;SDS011;39148;53.332;6.922;2023-05-10T02:08:49;4.22;;;3.05;;
53253;SDS011;39148;53.332;6.922;2023-05-10T02:11:16;4.50;;;3.17;;
53253;SDS011;39148;53.332;6.922;2023-05-10T02:13:46;5.65;;;3.10;;
53253;SDS011;39148;53.332;6.922;2023-05-10T02:16:14;4.05;;;3.05;;
53253;SDS011;39148;53.332;6.922;2023-05-10T02:18:42;4.13;;;2.97;;
53253;SDS011;39148;53.332;6.922;2023-05-10T02:21:08;3.72;;;2.75;;
53253;SDS011;39148;53.332;6.922;2023-05-10T02:23:36;4.03;;;2.85;;
53253;SDS011;39148;53.332;6.922;2023-05-10T02:26:02;4.47;;;3.05;;
53253;SDS011;39148;53.332;6.922;2023-05-10T02:28:30;4.60;;;3.10;;
53253;SDS011;39148;53.332;6.922;2023-05-10T02:30:58;4.10;;;2.75;;
53253;SDS011;39148;53.332;6.922;2023-05-10T02:33:24;3.90;;;2.65;;
53253;SDS011;39148;53.332;6.922;2023-05-10T02:35:50;3.90;;;2.78;;
53253;SDS011;39148;53.332;6.922;2023-05-10T02:38:17;3.70;;;2.75;;
53253;SDS011;39148;53.332;6.922;2023-05-10T02:40:45;4.53;;;3.05;;
53253;SDS011;39148;53.332;6.922;2023-05-10T02:43:12;4.40;;;3.00;;
53253;SDS011;39148;53.332;6.922;2023-05-10T02:45:39;4.25;;;2.90;;
53253;SDS011;39148;53.332;6.922;2023-05-10T02:48:06;4.18;;;2.90;;
53253;SDS011;39148;53.332;6.922;2023-05-10T02:50:32;5.40;;;3.00;;
53253;SDS011;39148;53.332;6.922;2023-05-10T02:53:01;4.03;;;2.95;;
53253;SDS011;39148;53.332;6.922;2023-05-10T02:55:38;4.28;;;2.63;;
53253;SDS011;39148;53.332;6.922;2023-05-10T03:00:32;3.88;;;2.70;;
53253;SDS011;39148;53.332;6.922;2023-05-10T03:02:57;4.00;;;2.80;;
53253;SDS011;39148;53.332;6.922;2023-05-10T03:05:23;3.53;;;2.67;;
53253;SDS011;39148;53.332;6.922;2023-05-10T03:07:49;3.80;;;2.65;;
53253;SDS011;39148;53.332;6.922;2023-05-10T03:10:16;3.90;;;2.72;;
53253;SDS011;39148;53.332;6.922;2023-05-10T03:12:56;4.07;;;2.70;;
53253;SDS011;39148;53.332;6.922;2023-05-10T03:18:21;4.07;;;2.92;;
53253;SDS011;39148;53.332;6.922;2023-05-10T03:20:51;3.90;;;2.58;;
53253;SDS011;39148;53.332;6.922;2023-05-10T03:23:34;4.28;;;3.08;;
53253;SDS011;39148;53.332;6.922;2023-05-10T03:26:00;3.75;;;2.50;;
53253;SDS011;39148;53.332;6.922;2023-05-10T03:28:26;3.95;;;2.60;;
53253;SDS011;39148;53.332;6.922;2023-05-10T03:30:53;3.83;;;2.65;;
53253;SDS011;39148;53.332;6.922;2023-05-10T03:33:20;4.38;;;3.08;;
53253;SDS011;39148;53.332;6.922;2023-05-10T03:35:46;3.63;;;2.53;;
53253;SDS011;39148;53.332;6.922;2023-05-10T03:38:12;4.75;;;2.67;;
53253;SDS011;39148;53.332;6.922;2023-05-10T03:40:38;5.22;;;3.30;;
53253;SDS011;39148;53.332;6.922;2023-05-10T03:43:04;3.50;;;2.60;;
53253;SDS011;39148;53.332;6.922;2023-05-10T03:45:29;3.78;;;2.83;;
53253;SDS011;39148;53.332;6.922;2023-05-10T03:47:57;3.70;;;2.63;;
53253;SDS011;39148;53.332;6.922;2023-05-10T03:50:23;3.70;;;2.63;;
53253;SDS011;39148;53.332;6.922;2023-05-10T03:52:49;3.97;;;2.88;;
53253;SDS011;39148;53.332;6.922;2023-05-10T03:55:15;3.95;;;2.60;;
53253;SDS011;39148;53.332;6.922;2023-05-10T03:57:41;4.00;;;2.58;;
53253;SDS011;39148;53.332;6.922;2023-05-10T04:00:07;3.63;;;2.42;;
53253;SDS011;39148;53.332;6.922;2023-05-10T04:02:33;4.40;;;3.30;;
53253;SDS011;39148;53.332;6.922;2023-05-10T04:04:59;4.05;;;2.88;;
53253;SDS011;39148;53.332;6.922;2023-05-10T04:07:25;4.25;;;2.80;;
53253;SDS011;39148;53.332;6.922;2023-05-10T04:09:51;3.45;;;2.47;;
53253;SDS011;39148;53.332;6.922;2023-05-10T04:12:17;4.03;;;2.80;;
53253;SDS011;39148;53.332;6.922;2023-05-10T04:14:43;3.75;;;2.70;;
53253;SDS011;39148;53.332;6.922;2023-05-10T04:17:08;3.80;;;2.60;;
53253;SDS011;39148;53.332;6.922;2023-05-10T04:19:34;3.97;;;2.67;;
53253;SDS011;39148;53.332;6.922;2023-05-10T04:22:01;3.85;;;2.80;;
53253;SDS011;39148;53.332;6.922;2023-05-10T04:24:27;4.13;;;2.92;;
53253;SDS011;39148;53.332;6.922;2023-05-10T04:26:53;4.72;;;3.40;;
53253;SDS011;39148;53.332;6.922;2023-05-10T04:29:19;4.50;;;3.10;;
53253;SDS011;39148;53.332;6.922;2023-05-10T04:31:45;4.28;;;3.20;;
53253;SDS011;39148;53.332;6.922;2023-05-10T04:34:11;4.45;;;3.17;;
53253;SDS011;39148;53.332;6.922;2023-05-10T04:36:37;4.80;;;3.33;;
53253;SDS011;39148;53.332;6.922;2023-05-10T04:39:03;4.57;;;3.22;;
53253;SDS011;39148;53.332;6.922;2023-05-10T04:41:29;5.93;;;4.13;;
53253;SDS011;39148;53.332;6.922;2023-05-10T04:43:55;5.22;;;3.70;;
53253;SDS011;39148;53.332;6.922;2023-05-10T04:46:21;5.35;;;3.90;;
53253;SDS011;39148;53.332;6.922;2023-05-10T04:48:47;4.72;;;3.47;;
53253;SDS011;39148;53.332;6.922;2023-05-10T04:51:13;5.20;;;3.90;;
53253;SDS011;39148;53.332;6.922;2023-05-10T04:53:38;5.72;;;3.92;;
53253;SDS011;39148;53.332;6.922;2023-05-10T04:56:04;5.85;;;4.43;;
53253;SDS011;39148;53.332;6.922;2023-05-10T04:58:30;5.53;;;4.03;;
53253;SDS011;39148;53.332;6.922;2023-05-10T05:00:56;5.95;;;4.03;;
53253;SDS011;39148;53.332;6.922;2023-05-10T05:03:21;5.35;;;3.83;;
53253;SDS011;39148;53.332;6.922;2023-05-10T05:05:47;5.30;;;3.63;;
53253;SDS011;39148;53.332;6.922;2023-05-10T05:08:13;5.38;;;3.97;;
53253;SDS011;39148;53.332;6.922;2023-05-10T05:10:39;5.72;;;3.80;;
53253;SDS011;39148;53.332;6.922;2023-05-10T05:13:05;6.28;;;4.13;;
53253;SDS011;39148;53.332;6.922;2023-05-10T05:15:31;5.25;;;3.88;;
53253;SDS011;39148;53.332;6.922;2023-05-10T05:17:57;6.22;;;4.15;;
53253;SDS011;39148;53.332;6.922;2023-05-10T05:20:22;6.60;;;4.28;;
53253;SDS011;39148;53.332;6.922;2023-05-10T05:22:48;6.07;;;3.95;;
53253;SDS011;39148;53.332;6.922;2023-05-10T05:25:14;6.20;;;3.60;;
53253;SDS011;39148;53.332;6.922;2023-05-10T05:27:41;5.13;;;3.58;;
53253;SDS011;39148;53.332;6.922;2023-05-10T05:30:06;5.90;;;3.20;;
53253;SDS011;39148;53.332;6.922;2023-05-10T05:32:33;5.15;;;3.42;;
53253;SDS011;39148;53.332;6.922;2023-05-10T05:34:59;6.05;;;3.40;;
53253;SDS011;39148;53.332;6.922;2023-05-10T05:37:24;5.22;;;3.50;;
53253;SDS011;39148;53.332;6.922;2023-05-10T05:39:51;4.93;;;2.97;;
53253;SDS011;39148;53.332;6.922;2023-05-10T05:42:17;4.20;;;2.90;;
53253;SDS011;39148;53.332;6.922;2023-05-10T05:44:44;4.13;;;2.60;;
53253;SDS011;39148;53.332;6.922;2023-05-10T05:47:10;5.30;;;3.05;;
53253;SDS011;39148;53.332;6.922;2023-05-10T05:49:35;5.05;;;2.88;;
53253;SDS011;39148;53.332;6.922;2023-05-10T05:52:01;4.43;;;2.55;;
53253;SDS011;39148;53.332;6.922;2023-05-10T05:54:28;4.13;;;2.65;;
53253;SDS011;39148;53.332;6.922;2023-05-10T05:56:55;4.80;;;2.78;;
53253;SDS011;39148;53.332;6.922;2023-05-10T05:59:21;4.13;;;2.45;;
53253;SDS011;39148;53.332;6.922;2023-05-10T06:01:47;3.50;;;2.22;;
53253;SDS011;39148;53.332;6.922;2023-05-10T06:04:13;3.70;;;2.30;;
53253;SDS011;39148;53.332;6.922;2023-05-10T06:06:39;4.40;;;2.10;;
53253;SDS011;39148;53.332;6.922;2023-05-10T06:09:05;4.35;;;2.20;;
53253;SDS011;39148;53.332;6.922;2023-05-10T06:11:30;3.17;;;1.60;;
53253;SDS011;39148;53.332;6.922;2023-05-10T06:13:59;3.80;;;2.22;;
53253;SDS011;39148;53.332;6.922;2023-05-10T06:16:25;3.58;;;1.90;;
53253;SDS011;39148;53.332;6.922;2023-05-10T06:18:51;2.60;;;1.55;;
53253;SDS011;39148;53.332;6.922;2023-05-10T06:21:17;2.35;;;1.40;;
53253;SDS011;39148;53.332;6.922;2023-05-10T06:23:43;2.65;;;1.58;;
53253;SDS011;39148;53.332;6.922;2023-05-10T06:26:09;4.15;;;2.10;;
53253;SDS011;39148;53.332;6.922;2023-05-10T06:28:34;3.65;;;1.60;;
53253;SDS011;39148;53.332;6.922;2023-05-10T06:31:02;3.03;;;1.80;;
53253;SDS011;39148;53.332;6.922;2023-05-10T06:33:28;2.47;;;1.27;;
53253;SDS011;39148;53.332;6.922;2023-05-10T06:35:54;2.42;;;1.40;;
53253;SDS011;39148;53.332;6.922;2023-05-10T06:38:20;2.00;;;1.20;;
53253;SDS011;39148;53.332;6.922;2023-05-10T06:40:46;2.03;;;1.40;;
53253;SDS011;39148;53.332;6.922;2023-05-10T06:43:12;1.42;;;1.00;;
53253;SDS011;39148;53.332;6.922;2023-05-10T06:45:38;1.73;;;1.20;;
53253;SDS011;39148;53.332;6.922;2023-05-10T06:48:04;2.28;;;1.17;;
53253;SDS011;39148;53.332;6.922;2023-05-10T06:50:29;1.92;;;1.02;;
53253;SDS011;39148;53.332;6.922;2023-05-10T06:52:56;2.30;;;1.00;;
53253;SDS011;39148;53.332;6.922;2023-05-10T06:55:21;1.88;;;0.80;;
53253;SDS011;39148;53.332;6.922;2023-05-10T06:57:47;1.55;;;0.70;;
53253;SDS011;39148;53.332;6.922;2023-05-10T07:00:13;2.00;;;0.73;;
53253;SDS011;39148;53.332;6.922;2023-05-10T07:02:39;1.52;;;0.68;;
53253;SDS011;39148;53.332;6.922;2023-05-10T07:05:05;1.08;;;0.68;;
53253;SDS011;39148;53.332;6.922;2023-05-10T07:07:31;1.17;;;0.60;;
53253;SDS011;39148;53.332;6.922;2023-05-10T07:09:57;2.15;;;0.57;;
53253;SDS011;39148;53.332;6.922;2023-05-10T07:12:23;1.85;;;0.65;;
53253;SDS011;39148;53.332;6.922;2023-05-10T07:14:49;0.93;;;0.43;;
53253;SDS011;39148;53.332;6.922;2023-05-10T07:17:15;0.73;;;0.52;;
53253;SDS011;39148;53.332;6.922;2023-05-10T07:19:41;1.38;;;0.50;;
53253;SDS011;39148;53.332;6.922;2023-05-10T07:22:06;0.85;;;0.50;;
53253;SDS011;39148;53.332;6.922;2023-05-10T07:24:33;2.25;;;0.55;;
53253;SDS011;39148;53.332;6.922;2023-05-10T07:26:59;2.08;;;0.90;;
53253;SDS011;39148;53.332;6.922;2023-05-10T07:29:24;2.63;;;0.88;;
53253;SDS011;39148;53.332;6.922;2023-05-10T07:31:50;1.60;;;0.70;;
53253;SDS011;39148;53.332;6.922;2023-05-10T07:34:16;2.38;;;0.80;;
53253;SDS011;39148;53.332;6.922;2023-05-10T07:36:41;1.75;;;0.77;;
53253;SDS011;39148;53.332;6.922;2023-05-10T07:39:07;2.30;;;0.90;;
53253;SDS011;39148;53.332;6.922;2023-05-10T07:41:33;1.98;;;0.80;;
53253;SDS011;39148;53.332;6.922;2023-05-10T07:43:59;1.73;;;1.00;;
53253;SDS011;39148;53.332;6.922;2023-05-10T07:46:25;1.65;;;0.88;;
53253;SDS011;39148;53.332;6.922;2023-05-10T07:48:50;1.20;;;0.70;;
53253;SDS011;39148;53.332;6.922;2023-05-10T07:51:16;1.73;;;0.80;;
53253;SDS011;39148;53.332;6.922;2023-05-10T07:53:42;2.78;;;1.20;;
53253;SDS011;39148;53.332;6.922;2023-05-10T07:56:26;2.80;;;1.10;;
53253;SDS011;39148;53.332;6.922;2023-05-10T07:59:03;1.88;;;0.90;;
53253;SDS011;39148;53.332;6.922;2023-05-10T08:01:31;2.63;;;1.00;;
53253;SDS011;39148;53.332;6.922;2023-05-10T08:03:58;2.63;;;0.93;;
53253;SDS011;39148;53.332;6.922;2023-05-10T08:06:25;2.40;;;1.00;;
53253;SDS011;39148;53.332;6.922;2023-05-10T08:08:55;2.63;;;1.13;;
53253;SDS011;39148;53.332;6.922;2023-05-10T08:11:20;3.05;;;1.40;;
53253;SDS011;39148;53.332;6.922;2023-05-10T08:13:47;2.70;;;1.50;;
53253;SDS011;39148;53.332;6.922;2023-05-10T08:16:15;2.53;;;1.50;;
53253;SDS011;39148;53.332;6.922;2023-05-10T08:18:42;2.20;;;1.42;;
53253;SDS011;39148;53.332;6.922;2023-05-10T08:21:08;1.95;;;1.42;;
53253;SDS011;39148;53.332;6.922;2023-05-10T08:23:36;2.53;;;1.50;;
53253;SDS011;39148;53.332;6.922;2023-05-10T08:26:02;3.83;;;1.50;;
53253;SDS011;39148;53.332;6.922;2023-05-10T08:28:27;2.35;;;1.65;;
53253;SDS011;39148;53.332;6.922;2023-05-10T08:30:53;3.20;;;1.85;;
53253;SDS011;39148;53.332;6.922;2023-05-10T08:33:19;3.70;;;2.20;;
53253;SDS011;39148;53.332;6.922;2023-05-10T08:35:45;4.30;;;2.10;;
53253;SDS011;39148;53.332;6.922;2023-05-10T08:38:11;3.50;;;2.28;;
53253;SDS011;39148;53.332;6.922;2023-05-10T08:40:38;4.03;;;1.98;;
53253;SDS011;39148;53.332;6.922;2023-05-10T08:43:09;4.07;;;2.17;;
53253;SDS011;39148;53.332;6.922;2023-05-10T08:45:40;3.83;;;2.22;;
53253;SDS011;39148;53.332;6.922;2023-05-10T08:48:12;3.75;;;2.47;;
53253;SDS011;39148;53.332;6.922;2023-05-10T08:50:40;3.28;;;2.30;;
53253;SDS011;39148;53.332;6.922;2023-05-10T08:53:10;3.22;;;2.22;;
53253;SDS011;39148;53.332;6.922;2023-05-10T08:55:37;3.15;;;1.88;;
53253;SDS011;39148;53.332;6.922;2023-05-10T08:58:05;3.05;;;1.90;;
53253;SDS011;39148;53.332;6.922;2023-05-10T09:00:31;2.90;;;1.83;;
53253;SDS011;39148;53.332;6.922;2023-05-10T09:03:00;3.03;;;1.67;;
53253;SDS011;39148;53.332;6.922;2023-05-10T09:05:26;3.03;;;1.70;;
53253;SDS011;39148;53.332;6.922;2023-05-10T09:07:52;3.33;;;1.67;;
53253;SDS011;39148;53.332;6.922;2023-05-10T09:10:18;2.65;;;1.67;;
53253;SDS011;39148;53.332;6.922;2023-05-10T09:12:45;3.28;;;1.90;;
53253;SDS011;39148;53.332;6.922;2023-05-10T09:15:12;2.63;;;1.52;;
53253;SDS011;39148;53.332;6.922;2023-05-10T09:17:41;2.72;;;1.60;;
53253;SDS011;39148;53.332;6.922;2023-05-10T09:20:09;3.22;;;1.70;;
53253;SDS011;39148;53.332;6.922;2023-05-10T09:22:34;4.20;;;1.73;;
53253;SDS011;39148;53.332;6.922;2023-05-10T09:27:33;2.55;;;1.50;;
53253;SDS011;39148;53.332;6.922;2023-05-10T09:29:59;2.58;;;1.55;;
53253;SDS011;39148;53.332;6.922;2023-05-10T09:32:42;2.45;;;1.40;;
53253;SDS011;39148;53.332;6.922;2023-05-10T09:35:14;2.88;;;1.65;;
53253;SDS011;39148;53.332;6.922;2023-05-10T09:37:46;2.30;;;1.20;;
53253;SDS011;39148;53.332;6.922;2023-05-10T09:40:19;3.53;;;1.27;;
53253;SDS011;39148;53.332;6.922;2023-05-10T09:43:00;2.00;;;1.10;;
53253;SDS011;39148;53.332;6.922;2023-05-10T09:45:31;2.25;;;1.10;;
53253;SDS011;39148;53.332;6.922;2023-05-10T09:47:59;1.77;;;1.10;;
53253;SDS011;39148;53.332;6.922;2023-05-10T09:50:26;2.20;;;1.30;;
53253;SDS011;39148;53.332;6.922;2023-05-10T09:52:53;1.75;;;1.10;;
53253;SDS011;39148;53.332;6.922;2023-05-10T09:55:21;2.05;;;1.15;;
53253;SDS011;39148;53.332;6.922;2023-05-10T09:57:48;1.60;;;1.00;;
53253;SDS011;39148;53.332;6.922;2023-05-10T10:00:16;1.65;;;0.90;;
53253;SDS011;39148;53.332;6.922;2023-05-10T10:02:54;1.95;;;0.95;;
53253;SDS011;39148;53.332;6.922;2023-05-10T10:05:22;1.67;;;0.90;;
53253;SDS011;39148;53.332;6.922;2023-05-10T10:07:53;1.70;;;1.10;;
53253;SDS011;39148;53.332;6.922;2023-05-10T10:10:20;2.65;;;1.30;;
53253;SDS011;39148;53.332;6.922;2023-05-10T10:12:46;2.00;;;1.00;;
53253;SDS011;39148;53.332;6.922;2023-05-10T10:15:12;1.83;;;1.00;;
53253;SDS011;39148;53.332;6.922;2023-05-10T10:17:38;2.15;;;1.20;;
53253;SDS011;39148;53.332;6.922;2023-05-10T10:20:04;1.58;;;1.00;;
53253;SDS011;39148;53.332;6.922;2023-05-10T10:22:31;1.73;;;1.00;;
53253;SDS011;39148;53.332;6.922;2023-05-10T10:24:57;1.70;;;1.10;;
53253;SDS011;39148;53.332;6.922;2023-05-10T10:30:07;2.35;;;1.20;;
53253;SDS011;39148;53.332;6.922;2023-05-10T10:35:20;1.77;;;1.10;;
53253;SDS011;39148;53.332;6.922;2023-05-10T10:37:47;1.63;;;1.00;;
53253;SDS011;39148;53.332;6.922;2023-05-10T10:40:28;1.95;;;1.00;;
53253;SDS011;39148;53.332;6.922;2023-05-10T10:42:55;4.28;;;1.30;;
53253;SDS011;39148;53.332;6.922;2023-05-10T10:45:22;2.08;;;1.10;;
53253;SDS011;39148;53.332;6.922;2023-05-10T10:47:49;2.28;;;1.23;;
53253;SDS011;39148;53.332;6.922;2023-05-10T10:50:44;2.35;;;1.25;;
53253;SDS011;39148;53.332;6.922;2023-05-10T10:53:11;2.70;;;1.20;;
53253;SDS011;39148;53.332;6.922;2023-05-10T10:55:46;2.78;;;1.25;;
53253;SDS011;39148;53.332;6.922;2023-05-10T10:58:28;2.35;;;1.20;;
53253;SDS011;39148;53.332;6.922;2023-05-10T11:01:09;1.77;;;1.00;;
53253;SDS011;39148;53.332;6.922;2023-05-10T11:03:39;2.65;;;1.40;;
53253;SDS011;39148;53.332;6.922;2023-05-10T11:06:05;2.70;;;1.20;;
53253;SDS011;39148;53.332;6.922;2023-05-10T11:08:32;2.47;;;1.10;;
53253;SDS011;39148;53.332;6.922;2023-05-10T11:18:37;2.10;;;1.17;;
53253;SDS011;39148;53.332;6.922;2023-05-10T11:21:03;3.65;;;1.40;;
53253;SDS011;39148;53.332;6.922;2023-05-10T11:23:32;2.70;;;1.50;;
53253;SDS011;39148;53.332;6.922;2023-05-10T11:26:07;3.05;;;1.52;;
53253;SDS011;39148;53.332;6.922;2023-05-10T11:28:34;3.22;;;1.30;;
53253;SDS011;39148;53.332;6.922;2023-05-10T11:31:06;2.17;;;1.20;;
53253;SDS011;39148;53.332;6.922;2023-05-10T11:33:41;2.67;;;1.17;;
53253;SDS011;39148;53.332;6.922;2023-05-10T11:36:12;1.33;;;0.90;;
53253;SDS011;39148;53.332;6.922;2023-05-10T11:38:41;2.05;;;1.00;;
53253;SDS011;39148;53.332;6.922;2023-05-10T11:41:08;2.55;;;1.10;;
53253;SDS011;39148;53.332;6.922;2023-05-10T11:43:36;1.48;;;0.70;;
53253;SDS011;39148;53.332;6.922;2023-05-10T11:46:04;1.75;;;0.80;;
53253;SDS011;39148;53.332;6.922;2023-05-10T11:48:33;2.58;;;0.98;;
53253;SDS011;39148;53.332;6.922;2023-05-10T11:51:00;1.85;;;0.88;;
53253;SDS011;39148;53.332;6.922;2023-05-10T11:53:27;1.73;;;0.90;;
53253;SDS011;39148;53.332;6.922;2023-05-10T11:55:55;2.03;;;1.00;;
53253;SDS011;39148;53.332;6.922;2023-05-10T11:58:23;2.65;;;1.10;;
53253;SDS011;39148;53.332;6.922;2023-05-10T12:00:49;2.35;;;1.00;;
53253;SDS011;39148;53.332;6.922;2023-05-10T12:03:15;2.60;;;1.13;;
53253;SDS011;39148;53.332;6.922;2023-05-10T12:05:41;2.35;;;1.10;;
53253;SDS011;39148;53.332;6.922;2023-05-10T12:08:13;3.22;;;1.38;;
53253;SDS011;39148;53.332;6.922;2023-05-10T12:10:40;3.95;;;1.67;;
53253;SDS011;39148;53.332;6.922;2023-05-10T12:13:10;2.40;;;1.20;;
53253;SDS011;39148;53.332;6.922;2023-05-10T12:15:39;2.53;;;1.27;;
53253;SDS011;39148;53.332;6.922;2023-05-10T12:18:05;1.95;;;1.02;;
53253;SDS011;39148;53.332;6.922;2023-05-10T12:20:31;2.03;;;1.10;;
53253;SDS011;39148;53.332;6.922;2023-05-10T12:22:57;2.35;;;1.20;;
53253;SDS011;39148;53.332;6.922;2023-05-10T12:25:24;3.65;;;1.55;;
53253;SDS011;39148;53.332;6.922;2023-05-10T12:27:56;4.13;;;1.55;;
53253;SDS011;39148;53.332;6.922;2023-05-10T12:30:26;3.58;;;1.70;;
53253;SDS011;39148;53.332;6.922;2023-05-10T12:32:53;4.25;;;2.00;;
53253;SDS011;39148;53.332;6.922;2023-05-10T12:35:24;3.60;;;1.65;;
53253;SDS011;39148;53.332;6.922;2023-05-10T12:37:52;3.70;;;1.90;;
53253;SDS011;39148;53.332;6.922;2023-05-10T12:40:18;2.80;;;1.77;;
53253;SDS011;39148;53.332;6.922;2023-05-10T12:42:44;3.58;;;2.20;;
53253;SDS011;39148;53.332;6.922;2023-05-10T12:45:10;4.82;;;2.00;;
53253;SDS011;39148;53.332;6.922;2023-05-10T12:47:36;3.45;;;1.90;;
53253;SDS011;39148;53.332;6.922;2023-05-10T12:50:02;4.15;;;2.00;;
53253;SDS011;39148;53.332;6.922;2023-05-10T12:52:29;3.10;;;1.85;;
53253;SDS011;39148;53.332;6.922;2023-05-10T12:54:57;4.07;;;2.13;;
53253;SDS011;39148;53.332;6.922;2023-05-10T12:57:23;3.78;;;1.80;;
53253;SDS011;39148;53.332;6.922;2023-05-10T12:59:49;4.13;;;1.90;;
53253;SDS011;39148;53.332;6.922;2023-05-10T13:02:15;4.03;;;1.95;;
53253;SDS011;39148;53.332;6.922;2023-05-10T13:04:43;4.10;;;1.73;;
53253;SDS011;39148;53.332;6.922;2023-05-10T13:07:09;4.75;;;2.47;;
53253;SDS011;39148;53.332;6.922;2023-05-10T13:09:35;4.95;;;2.30;;
53253;SDS011;39148;53.332;6.922;2023-05-10T13:12:01;6.75;;;2.58;;
53253;SDS011;39148;53.332;6.922;2023-05-10T13:14:27;4.97;;;2.30;;
53253;SDS011;39148;53.332;6.922;2023-05-10T13:16:54;4.10;;;2.40;;
53253;SDS011;39148;53.332;6.922;2023-05-10T13:19:20;4.85;;;2.50;;
53253;SDS011;39148;53.332;6.922;2023-05-10T13:21:46;6.18;;;2.67;;
53253;SDS011;39148;53.332;6.922;2023-05-10T13:24:12;4.75;;;2.50;;
53253;SDS011;39148;53.332;6.922;2023-05-10T13:26:42;4.68;;;3.08;;
53253;SDS011;39148;53.332;6.922;2023-05-10T13:29:08;5.00;;;2.88;;
53253;SDS011;39148;53.332;6.922;2023-05-10T13:31:34;3.97;;;2.50;;
53253;SDS011;39148;53.332;6.922;2023-05-10T13:34:01;5.65;;;2.58;;
53253;SDS011;39148;53.332;6.922;2023-05-10T13:36:27;6.53;;;3.20;;
53253;SDS011;39148;53.332;6.922;2023-05-10T13:38:53;4.38;;;2.92;;
53253;SDS011;39148;53.332;6.922;2023-05-10T13:41:19;7.30;;;3.70;;
53253;SDS011;39148;53.332;6.922;2023-05-10T13:43:45;5.20;;;3.63;;
53253;SDS011;39148;53.332;6.922;2023-05-10T13:46:13;5.38;;;3.28;;
53253;SDS011;39148;53.332;6.922;2023-05-10T13:48:39;5.93;;;3.03;;
53253;SDS011;39148;53.332;6.922;2023-05-10T13:51:05;5.97;;;3.53;;
53253;SDS011;39148;53.332;6.922;2023-05-10T13:53:30;6.03;;;3.67;;
53253;SDS011;39148;53.332;6.922;2023-05-10T13:55:56;5.00;;;3.15;;
53253;SDS011;39148;53.332;6.922;2023-05-10T13:58:22;4.93;;;3.28;;
53253;SDS011;39148;53.332;6.922;2023-05-10T14:00:48;5.65;;;3.30;;
53253;SDS011;39148;53.332;6.922;2023-05-10T14:03:14;4.85;;;3.20;;
53253;SDS011;39148;53.332;6.922;2023-05-10T14:05:39;7.05;;;3.55;;
53253;SDS011;39148;53.332;6.922;2023-05-10T14:08:05;5.93;;;3.40;;
53253;SDS011;39148;53.332;6.922;2023-05-10T14:10:32;5.65;;;3.40;;
53253;SDS011;39148;53.332;6.922;2023-05-10T14:12:58;5.93;;;3.38;;
53253;SDS011;39148;53.332;6.922;2023-05-10T14:15:24;5.82;;;3.80;;
53253;SDS011;39148;53.332;6.922;2023-05-10T14:17:49;4.63;;;3.08;;
53253;SDS011;39148;53.332;6.922;2023-05-10T14:20:15;5.65;;;3.40;;
53253;SDS011;39148;53.332;6.922;2023-05-10T14:22:41;5.72;;;3.22;;
53253;SDS011;39148;53.332;6.922;2023-05-10T14:25:07;5.18;;;3.22;;
53253;SDS011;39148;53.332;6.922;2023-05-10T14:27:33;5.43;;;3.38;;
53253;SDS011;39148;53.332;6.922;2023-05-10T14:29:59;5.15;;;3.20;;
53253;SDS011;39148;53.332;6.922;2023-05-10T14:32:24;4.80;;;3.03;;
53253;SDS011;39148;53.332;6.922;2023-05-10T14:34:52;4.97;;;3.05;;
53253;SDS011;39148;53.332;6.922;2023-05-10T14:37:18;4.60;;;2.88;;
53253;SDS011;39148;53.332;6.922;2023-05-10T14:39:43;4.38;;;2.70;;
53253;SDS011;39148;53.332;6.922;2023-05-10T14:42:09;5.30;;;3.13;;
53253;SDS011;39148;53.332;6.922;2023-05-10T14:44:35;4.95;;;2.90;;
53253;SDS011;39148;53.332;6.922;2023-05-10T14:47:02;4.53;;;2.67;;
53253;SDS011;39148;53.332;6.922;2023-05-10T14:49:28;6.60;;;3.33;;
53253;SDS011;39148;53.332;6.922;2023-05-10T14:51:54;5.75;;;2.80;;
53253;SDS011;39148;53.332;6.922;2023-05-10T14:54:19;5.50;;;3.00;;
53253;SDS011;39148;53.332;6.922;2023-05-10T14:56:45;4.53;;;2.90;;
53253;SDS011;39148;53.332;6.922;2023-05-10T14:59:11;5.18;;;3.28;;
53253;SDS011;39148;53.332;6.922;2023-05-10T15:01:36;5.47;;;3.33;;
53253;SDS011;39148;53.332;6.922;2023-05-10T15:04:05;5.15;;;3.20;;
53253;SDS011;39148;53.332;6.922;2023-05-10T15:06:31;4.40;;;2.85;;
53253;SDS011;39148;53.332;6.922;2023-05-10T15:08:59;4.85;;;2.90;;
53253;SDS011;39148;53.332;6.922;2023-05-10T15:11:25;6.30;;;3.55;;
53253;SDS011;39148;53.332;6.922;2023-05-10T15:13:50;5.35;;;3.78;;
53253;SDS011;39148;53.332;6.922;2023-05-10T15:16:17;5.80;;;3.65;;
53253;SDS011;39148;53.332;6.922;2023-05-10T15:18:42;4.95;;;3.35;;
53253;SDS011;39148;53.332;6.922;2023-05-10T15:21:08;5.80;;;3.92;;
53253;SDS011;39148;53.332;6.922;2023-05-10T15:23:34;5.13;;;3.58;;
53253;SDS011;39148;53.332;6.922;2023-05-10T15:26:00;5.13;;;3.53;;
53253;SDS011;39148;53.332;6.922;2023-05-10T15:28:26;4.72;;;3.22;;